sensor_id;sensor_type;location;lat;lon;timestamp;pressure;altitude;pressure_sealevel;temperature;humidity
55914;BME280;58179;48.776;9.124;2023-03-13T00:00:18;96897.94;;;4.49;100.00
55914;BME280;58179;48.776;9.124;2023-03-13T00:02:44;96901.16;;;4.51;100.00
55914;BME280;58179;48.776;9.124;2023-03-13T00:05:10;96889.19;;;4.55;100.00
55914;BME280;58179;48.776;9.124;2023-03-13T00:07:36;96896.34;;;4.59;100.00
55914;BME280;58179;48.776;9.124;2023-03-13T00:10:02;96892.50;;;4.62;100.00
55914;BME280;58179;48.776;9.124;2023-03-13T00:12:29;96894.09;;;4.63;100.00
55914;BME280;58179;48.776;9.124;2023-03-13T00:14:56;96886.25;;;4.63;100.00
55914;BME280;58179;48.776;9.124;2023-03-13T00:17:22;96885.81;;;4.66;100.00
55914;BME280;58179;48.776;9.124;2023-03-13T00:19:49;96890.78;;;4.67;100.00
55914;BME280;58179;48.776;9.124;2023-03-13T00:22:15;96892.19;;;4.70;100.00
55914;BME280;58179;48.776;9.124;2023-03-13T00:24:41;96888.31;;;4.73;100.00
55914;BME280;58179;48.776;9.124;2023-03-13T00:27:07;96884.91;;;4.72;100.00
55914;BME280;58179;48.776;9.124;2023-03-13T00:29:33;96890.94;;;4.73;100.00
55914;BME280;58179;48.776;9.124;2023-03-13T00:32:01;96880.19;;;4.74;100.00
55914;BME280;58179;48.776;9.124;2023-03-13T00:34:27;96877.34;;;4.76;100.00
55914;BME280;58179;48.776;9.124;2023-03-13T00:36:53;96870.88;;;4.78;100.00
55914;BME280;58179;48.776;9.124;2023-03-13T00:39:20;96871.56;;;4.85;100.00
55914;BME280;58179;48.776;9.124;2023-03-13T00:41:46;96870.31;;;4.88;100.00
55914;BME280;58179;48.776;9.124;2023-03-13T00:44:12;96865.63;;;4.90;100.00
55914;BME280;58179;48.776;9.124;2023-03-13T00:46:38;96863.34;;;4.93;100.00
55914;BME280;58179;48.776;9.124;2023-03-13T00:49:06;96870.44;;;4.93;100.00
55914;BME280;58179;48.776;9.124;2023-03-13T00:51:32;96857.09;;;4.94;100.00
55914;BME280;58179;48.776;9.124;2023-03-13T00:53:59;96862.13;;;4.96;100.00
55914;BME280;58179;48.776;9.124;2023-03-13T00:56:26;96863.47;;;4.98;100.00
55914;BME280;58179;48.776;9.124;2023-03-13T00:58:52;96853.22;;;5.09;100.00
55914;BME280;58179;48.776;9.124;2023-03-13T01:01:20;96852.16;;;5.21;100.00
55914;BME280;58179;48.776;9.124;2023-03-13T01:03:49;96845.09;;;5.33;100.00
55914;BME280;58179;48.776;9.124;2023-03-13T01:06:20;96834.00;;;5.43;100.00
55914;BME280;58179;48.776;9.124;2023-03-13T01:08:46;96829.88;;;5.47;100.00
55914;BME280;58179;48.776;9.124;2023-03-13T01:11:15;96818.00;;;5.44;100.00
55914;BME280;58179;48.776;9.124;2023-03-13T01:13:42;96827.03;;;5.49;100.00
55914;BME280;58179;48.776;9.124;2023-03-13T01:16:11;96817.75;;;5.58;100.00
55914;BME280;58179;48.776;9.124;2023-03-13T01:18:39;96810.66;;;5.58;100.00
55914;BME280;58179;48.776;9.124;2023-03-13T01:21:06;96809.63;;;5.59;100.00
55914;BME280;58179;48.776;9.124;2023-03-13T01:23:34;96799.94;;;5.60;100.00
55914;BME280;58179;48.776;9.124;2023-03-13T01:26:00;96796.38;;;5.66;100.00
55914;BME280;58179;48.776;9.124;2023-03-13T01:28:26;96794.09;;;5.69;100.00
55914;BME280;58179;48.776;9.124;2023-03-13T01:30:52;96795.78;;;5.75;100.00
55914;BME280;58179;48.776;9.124;2023-03-13T01:33:18;96782.56;;;5.70;100.00
55914;BME280;58179;48.776;9.124;2023-03-13T01:35:44;96787.44;;;5.78;100.00
55914;BME280;58179;48.776;9.124;2023-03-13T01:38:10;96778.63;;;5.84;100.00
55914;BME280;58179;48.776;9.124;2023-03-13T01:40:43;96771.28;;;5.87;100.00
55914;BME280;58179;48.776;9.124;2023-03-13T01:43:18;96764.47;;;5.86;100.00
55914;BME280;58179;48.776;9.124;2023-03-13T01:46:00;96759.44;;;5.84;100.00
55914;BME280;58179;48.776;9.124;2023-03-13T01:48:34;96760.91;;;5.80;100.00
55914;BME280;58179;48.776;9.124;2023-03-13T01:51:06;96752.38;;;5.73;100.00
55914;BME280;58179;48.776;9.124;2023-03-13T01:53:35;96742.91;;;5.72;100.00
55914;BME280;58179;48.776;9.124;2023-03-13T01:56:06;96741.88;;;5.73;100.00
55914;BME280;58179;48.776;9.124;2023-03-13T01:58:34;96737.66;;;5.72;100.00
55914;BME280;58179;48.776;9.124;2023-03-13T02:01:01;96729.00;;;5.71;100.00
55914;BME280;58179;48.776;9.124;2023-03-13T02:03:28;96723.66;;;5.66;100.00
55914;BME280;58179;48.776;9.124;2023-03-13T02:05:57;96720.56;;;5.69;100.00
55914;BME280;58179;48.776;9.124;2023-03-13T02:08:29;96721.38;;;5.70;100.00
55914;BME280;58179;48.776;9.124;2023-03-13T02:11:06;96718.19;;;5.68;100.00
55914;BME280;58179;48.776;9.124;2023-03-13T02:13:34;96718.09;;;5.63;100.00
55914;BME280;58179;48.776;9.124;2023-03-13T02:16:01;96709.09;;;5.59;100.00
55914;BME280;58179;48.776;9.124;2023-03-13T02:18:27;96714.91;;;5.61;100.00
55914;BME280;58179;48.776;9.124;2023-03-13T02:21:00;96713.88;;;5.62;100.00
55914;BME280;58179;48.776;9.124;2023-03-13T02:23:34;96713.38;;;5.65;100.00
55914;BME280;58179;48.776;9.124;2023-03-13T02:26:05;96708.13;;;5.65;100.00
55914;BME280;58179;48.776;9.124;2023-03-13T02:28:33;96708.13;;;5.65;100.00
55914;BME280;58179;48.776;9.124;2023-03-13T02:31:00;96709.19;;;5.64;100.00
55914;BME280;58179;48.776;9.124;2023-03-13T02:33:29;96704.25;;;5.67;100.00
55914;BME280;58179;48.776;9.124;2023-03-13T02:35:56;96698.75;;;5.69;100.00
55914;BME280;58179;48.776;9.124;2023-03-13T02:38:25;96695.13;;;5.70;100.00
55914;BME280;58179;48.776;9.124;2023-03-13T02:40:52;96688.34;;;5.74;100.00
55914;BME280;58179;48.776;9.124;2023-03-13T02:43:28;96681.50;;;5.73;100.00
55914;BME280;58179;48.776;9.124;2023-03-13T02:46:04;96670.28;;;5.77;100.00
55914;BME280;58179;48.776;9.124;2023-03-13T02:48:34;96665.56;;;5.79;100.00
55914;BME280;58179;48.776;9.124;2023-03-13T02:51:03;96665.44;;;5.86;100.00
55914;BME280;58179;48.776;9.124;2023-03-13T02:53:31;96658.59;;;5.85;100.00
55914;BME280;58179;48.776;9.124;2023-03-13T02:55:57;96654.72;;;5.88;100.00
55914;BME280;58179;48.776;9.124;2023-03-13T02:58:24;96649.56;;;5.93;100.00
55914;BME280;58179;48.776;9.124;2023-03-13T03:00:51;96645.09;;;5.93;100.00
55914;BME280;58179;48.776;9.124;2023-03-13T03:03:17;96640.94;;;5.97;100.00
55914;BME280;58179;48.776;9.124;2023-03-13T03:05:43;96634.97;;;6.02;100.00
55914;BME280;58179;48.776;9.124;2023-03-13T03:08:09;96633.13;;;6.02;100.00
55914;BME280;58179;48.776;9.124;2023-03-13T03:10:35;96624.56;;;6.07;100.00
55914;BME280;58179;48.776;9.124;2023-03-13T03:13:01;96623.53;;;6.08;100.00
55914;BME280;58179;48.776;9.124;2023-03-13T03:15:29;96614.66;;;6.14;100.00
55914;BME280;58179;48.776;9.124;2023-03-13T03:17:54;96610.50;;;6.18;100.00
55914;BME280;58179;48.776;9.124;2023-03-13T03:20:20;96606.84;;;6.19;100.00
55914;BME280;58179;48.776;9.124;2023-03-13T03:22:46;96601.03;;;6.17;100.00
55914;BME280;58179;48.776;9.124;2023-03-13T03:25:12;96609.47;;;6.19;100.00
55914;BME280;58179;48.776;9.124;2023-03-13T03:27:38;96610.50;;;6.18;100.00
55914;BME280;58179;48.776;9.124;2023-03-13T03:30:06;96603.00;;;6.27;100.00
55914;BME280;58179;48.776;9.124;2023-03-13T03:32:33;96608.50;;;6.25;100.00
55914;BME280;58179;48.776;9.124;2023-03-13T03:34:59;96605.16;;;6.30;100.00
55914;BME280;58179;48.776;9.124;2023-03-13T03:37:25;96599.16;;;6.34;100.00
55914;BME280;58179;48.776;9.124;2023-03-13T03:39:51;96598.19;;;6.40;100.00
55914;BME280;58179;48.776;9.124;2023-03-13T03:42:17;96601.13;;;6.44;100.00
55914;BME280;58179;48.776;9.124;2023-03-13T03:44:43;96594.28;;;6.43;100.00
55914;BME280;58179;48.776;9.124;2023-03-13T03:47:09;96600.97;;;6.50;100.00
55914;BME280;58179;48.776;9.124;2023-03-13T03:49:36;96596.50;;;6.51;100.00
55914;BME280;58179;48.776;9.124;2023-03-13T03:52:02;96595.75;;;6.55;100.00
55914;BME280;58179;48.776;9.124;2023-03-13T03:54:28;96599.75;;;6.58;100.00
55914;BME280;58179;48.776;9.124;2023-03-13T03:56:54;96602.66;;;6.61;100.00
55914;BME280;58179;48.776;9.124;2023-03-13T03:59:20;96604.25;;;6.63;100.00
55914;BME280;58179;48.776;9.124;2023-03-13T04:01:46;96604.34;;;6.68;100.00
55914;BME280;58179;48.776;9.124;2023-03-13T04:04:12;96612.75;;;6.70;100.00
55914;BME280;58179;48.776;9.124;2023-03-13T04:06:39;96591.03;;;6.79;100.00
55914;BME280;58179;48.776;9.124;2023-03-13T04:09:05;96587.16;;;7.09;100.00
55914;BME280;58179;48.776;9.124;2023-03-13T04:11:31;96585.22;;;7.26;100.00
55914;BME280;58179;48.776;9.124;2023-03-13T04:13:57;96587.22;;;7.46;100.00
55914;BME280;58179;48.776;9.124;2023-03-13T04:16:23;96585.28;;;7.63;100.00
55914;BME280;58179;48.776;9.124;2023-03-13T04:18:48;96591.00;;;7.92;100.00
55914;BME280;58179;48.776;9.124;2023-03-13T04:21:14;96575.59;;;8.10;100.00
55914;BME280;58179;48.776;9.124;2023-03-13T04:23:41;96571.38;;;8.14;100.00
55914;BME280;58179;48.776;9.124;2023-03-13T04:26:07;96569.09;;;8.28;100.00
55914;BME280;58179;48.776;9.124;2023-03-13T04:28:33;96569.72;;;8.40;100.00
55914;BME280;58179;48.776;9.124;2023-03-13T04:30:59;96570.03;;;8.49;100.00
55914;BME280;58179;48.776;9.124;2023-03-13T04:33:26;96553.47;;;8.69;100.00
55914;BME280;58179;48.776;9.124;2023-03-13T04:35:52;96559.81;;;8.68;100.00
55914;BME280;58179;48.776;9.124;2023-03-13T04:38:18;96551.63;;;8.64;100.00
55914;BME280;58179;48.776;9.124;2023-03-13T04:40:45;96550.59;;;8.80;100.00
55914;BME280;58179;48.776;9.124;2023-03-13T04:43:11;96549.03;;;8.84;100.00
55914;BME280;58179;48.776;9.124;2023-03-13T04:45:37;96548.50;;;8.87;100.00
55914;BME280;58179;48.776;9.124;2023-03-13T04:48:03;96547.47;;;8.93;100.00
55914;BME280;58179;48.776;9.124;2023-03-13T04:50:29;96547.22;;;9.00;100.00
55914;BME280;58179;48.776;9.124;2023-03-13T04:52:55;96537.22;;;9.12;100.00
55914;BME280;58179;48.776;9.124;2023-03-13T04:55:21;96547.22;;;9.00;100.00
55914;BME280;58179;48.776;9.124;2023-03-13T04:57:48;96547.22;;;9.05;100.00
55914;BME280;58179;48.776;9.124;2023-03-13T05:00:15;96548.00;;;8.96;100.00
55914;BME280;58179;48.776;9.124;2023-03-13T05:02:41;96545.88;;;8.87;100.00
55914;BME280;58179;48.776;9.124;2023-03-13T05:05:07;96543.25;;;8.98;100.00
55914;BME280;58179;48.776;9.124;2023-03-13T05:07:33;96546.94;;;8.91;100.00
55914;BME280;58179;48.776;9.124;2023-03-13T05:09:59;96541.16;;;8.95;100.00
55914;BME280;58179;48.776;9.124;2023-03-13T05:12:25;96525.06;;;9.01;100.00
55914;BME280;58179;48.776;9.124;2023-03-13T05:14:52;96532.19;;;9.06;100.00
55914;BME280;58179;48.776;9.124;2023-03-13T05:17:18;96526.38;;;9.04;100.00
55914;BME280;58179;48.776;9.124;2023-03-13T05:19:44;96529.53;;;9.11;100.00
55914;BME280;58179;48.776;9.124;2023-03-13T05:22:10;96538.81;;;9.08;100.00
55914;BME280;58179;48.776;9.124;2023-03-13T05:24:36;96545.66;;;9.14;100.00
55914;BME280;58179;48.776;9.124;2023-03-13T05:27:02;96547.50;;;9.14;100.00
55914;BME280;58179;48.776;9.124;2023-03-13T05:29:28;96556.75;;;9.21;100.00
55914;BME280;58179;48.776;9.124;2023-03-13T05:31:55;96548.84;;;9.37;100.00
55914;BME280;58179;48.776;9.124;2023-03-13T05:34:21;96542.25;;;9.44;100.00
55914;BME280;58179;48.776;9.124;2023-03-13T05:36:47;96540.16;;;9.51;100.00
55914;BME280;58179;48.776;9.124;2023-03-13T05:39:13;96540.16;;;9.61;100.00
55914;BME280;58179;48.776;9.124;2023-03-13T05:41:39;96531.94;;;9.43;100.00
55914;BME280;58179;48.776;9.124;2023-03-13T05:44:05;96521.66;;;9.36;100.00
55914;BME280;58179;48.776;9.124;2023-03-13T05:46:31;96503.94;;;9.52;100.00
55914;BME280;58179;48.776;9.124;2023-03-13T05:48:59;96521.63;;;9.56;100.00
55914;BME280;58179;48.776;9.124;2023-03-13T05:51:25;96519.03;;;9.46;100.00
55914;BME280;58179;48.776;9.124;2023-03-13T05:53:51;96516.09;;;9.58;100.00
55914;BME280;58179;48.776;9.124;2023-03-13T05:56:17;96508.44;;;9.41;100.00
55914;BME280;58179;48.776;9.124;2023-03-13T05:58:43;96523.25;;;9.37;100.00
55914;BME280;58179;48.776;9.124;2023-03-13T06:01:11;96517.97;;;9.37;100.00
55914;BME280;58179;48.776;9.124;2023-03-13T06:03:38;96511.38;;;9.40;100.00
55914;BME280;58179;48.776;9.124;2023-03-13T06:06:06;96526.66;;;9.27;100.00
55914;BME280;58179;48.776;9.124;2023-03-13T06:08:31;96520.59;;;9.32;100.00
55914;BME280;58179;48.776;9.124;2023-03-13T06:10:58;96524.81;;;9.28;100.00
55914;BME280;58179;48.776;9.124;2023-03-13T06:13:25;96527.47;;;9.38;100.00
55914;BME280;58179;48.776;9.124;2023-03-13T06:15:52;96527.47;;;9.38;100.00
55914;BME280;58179;48.776;9.124;2023-03-13T06:18:18;96530.34;;;9.42;100.00
55914;BME280;58179;48.776;9.124;2023-03-13T06:20:44;96536.69;;;9.56;100.00
55914;BME280;58179;48.776;9.124;2023-03-13T06:23:11;96537.25;;;9.53;100.00
55914;BME280;58179;48.776;9.124;2023-03-13T06:25:37;96542.25;;;9.59;100.00
55914;BME280;58179;48.776;9.124;2023-03-13T06:28:03;96538.03;;;9.48;100.00
55914;BME280;58179;48.776;9.124;2023-03-13T06:30:29;96547.00;;;9.62;100.00
55914;BME280;58179;48.776;9.124;2023-03-13T06:32:55;96536.19;;;9.59;100.00
55914;BME280;58179;48.776;9.124;2023-03-13T06:35:24;96536.69;;;9.56;100.00
55914;BME280;58179;48.776;9.124;2023-03-13T06:37:50;96529.31;;;9.68;100.00
55914;BME280;58179;48.776;9.124;2023-03-13T06:40:17;96517.69;;;9.59;100.00
55914;BME280;58179;48.776;9.124;2023-03-13T06:42:43;96531.16;;;9.67;100.00
55914;BME280;58179;48.776;9.124;2023-03-13T06:45:10;96521.88;;;9.70;100.00
55914;BME280;58179;48.776;9.124;2023-03-13T06:47:36;96527.69;;;9.87;100.00
55914;BME280;58179;48.776;9.124;2023-03-13T06:50:02;96527.16;;;9.90;100.00
55914;BME280;58179;48.776;9.124;2023-03-13T06:52:28;96525.03;;;9.87;100.00
55914;BME280;58179;48.776;9.124;2023-03-13T06:54:54;96542.75;;;9.92;100.00
55914;BME280;58179;48.776;9.124;2023-03-13T06:57:21;96548.84;;;9.82;100.00
55914;BME280;58179;48.776;9.124;2023-03-13T06:59:47;96552.25;;;10.03;100.00
55914;BME280;58179;48.776;9.124;2023-03-13T07:02:13;96553.88;;;9.84;100.00
55914;BME280;58179;48.776;9.124;2023-03-13T07:04:40;96552.00;;;9.99;100.00
55914;BME280;58179;48.776;9.124;2023-03-13T07:07:06;96550.69;;;9.82;100.00
55914;BME280;58179;48.776;9.124;2023-03-13T07:09:32;96551.47;;;9.92;100.00
55914;BME280;58179;48.776;9.124;2023-03-13T07:11:58;96543.53;;;9.97;100.00
55914;BME280;58179;48.776;9.124;2023-03-13T07:14:25;96540.38;;;9.95;100.00
55914;BME280;58179;48.776;9.124;2023-03-13T07:16:54;96550.66;;;10.07;100.00
55914;BME280;58179;48.776;9.124;2023-03-13T07:19:20;96543.25;;;10.09;100.00
55914;BME280;58179;48.776;9.124;2023-03-13T07:21:46;96549.59;;;10.03;100.00
55914;BME280;58179;48.776;9.124;2023-03-13T07:24:12;96550.13;;;10.10;100.00
55914;BME280;58179;48.776;9.124;2023-03-13T07:26:38;96539.56;;;10.00;100.00
55914;BME280;58179;48.776;9.124;2023-03-13T07:29:04;96544.03;;;10.30;100.00
55914;BME280;58179;48.776;9.124;2023-03-13T07:31:31;96546.13;;;10.23;100.00
55914;BME280;58179;48.776;9.124;2023-03-13T07:33:58;96533.22;;;10.06;100.00
55914;BME280;58179;48.776;9.124;2023-03-13T07:36:24;96528.97;;;10.00;100.00
55914;BME280;58179;48.776;9.124;2023-03-13T07:38:51;96534.00;;;10.01;100.00
55914;BME280;58179;48.776;9.124;2023-03-13T07:41:18;96527.94;;;10.06;100.00
55914;BME280;58179;48.776;9.124;2023-03-13T07:43:45;96532.41;;;10.05;100.00
55914;BME280;58179;48.776;9.124;2023-03-13T07:46:13;96530.56;;;10.21;100.00
55914;BME280;58179;48.776;9.124;2023-03-13T07:48:42;96525.25;;;10.11;100.00
55914;BME280;58179;48.776;9.124;2023-03-13T07:51:12;96522.63;;;10.06;100.00
55914;BME280;58179;48.776;9.124;2023-03-13T07:53:38;96512.84;;;10.12;100.00
55914;BME280;58179;48.776;9.124;2023-03-13T07:56:06;96518.94;;;10.22;100.00
55914;BME280;58179;48.776;9.124;2023-03-13T07:58:35;96502.22;;;10.17;100.00
55914;BME280;58179;48.776;9.124;2023-03-13T08:01:08;96493.53;;;10.21;100.00
55914;BME280;58179;48.776;9.124;2023-03-13T08:03:34;96492.47;;;10.17;100.00
55914;BME280;58179;48.776;9.124;2023-03-13T08:06:04;96490.06;;;10.26;100.00
55914;BME280;58179;48.776;9.124;2023-03-13T08:08:30;96481.03;;;10.32;100.00
55914;BME280;58179;48.776;9.124;2023-03-13T08:11:01;96477.53;;;10.46;100.00
55914;BME280;58179;48.776;9.124;2023-03-13T08:13:27;96458.44;;;10.55;100.00
55914;BME280;58179;48.776;9.124;2023-03-13T08:16:02;96451.00;;;10.67;100.00
55914;BME280;58179;48.776;9.124;2023-03-13T08:18:28;96450.59;;;10.89;100.00
55914;BME280;58179;48.776;9.124;2023-03-13T08:21:02;96444.75;;;10.86;100.00
55914;BME280;58179;48.776;9.124;2023-03-13T08:23:28;96453.66;;;11.01;100.00
55914;BME280;58179;48.776;9.124;2023-03-13T08:25:54;96453.63;;;11.06;100.00
55914;BME280;58179;48.776;9.124;2023-03-13T08:28:20;96454.00;;;11.23;100.00
55914;BME280;58179;48.776;9.124;2023-03-13T08:30:46;96459.72;;;11.35;100.00
55914;BME280;58179;48.776;9.124;2023-03-13T08:33:12;96474.75;;;11.50;100.00
55914;BME280;58179;48.776;9.124;2023-03-13T08:35:38;96470.19;;;11.50;100.00
55914;BME280;58179;48.776;9.124;2023-03-13T08:38:05;96472.63;;;11.47;100.00
55914;BME280;58179;48.776;9.124;2023-03-13T08:40:31;96458.69;;;11.65;100.00
55914;BME280;58179;48.776;9.124;2023-03-13T08:42:57;96465.66;;;11.56;100.00
55914;BME280;58179;48.776;9.124;2023-03-13T08:45:23;96458.38;;;11.67;100.00
55914;BME280;58179;48.776;9.124;2023-03-13T08:47:51;96471.72;;;11.90;100.00
55914;BME280;58179;48.776;9.124;2023-03-13T08:50:18;96452.94;;;11.87;100.00
55914;BME280;58179;48.776;9.124;2023-03-13T08:52:44;96455.72;;;11.72;100.00
55914;BME280;58179;48.776;9.124;2023-03-13T08:55:11;96467.34;;;11.76;100.00
55914;BME280;58179;48.776;9.124;2023-03-13T08:57:37;96467.25;;;11.86;100.00
55914;BME280;58179;48.776;9.124;2023-03-13T09:00:04;96475.06;;;12.01;100.00
55914;BME280;58179;48.776;9.124;2023-03-13T09:02:35;96472.63;;;12.05;100.00
55914;BME280;58179;48.776;9.124;2023-03-13T09:05:01;96467.94;;;12.20;100.00
55914;BME280;58179;48.776;9.124;2023-03-13T09:07:27;96469.06;;;12.14;100.00
55914;BME280;58179;48.776;9.124;2023-03-13T09:09:53;96472.88;;;12.03;100.00
55914;BME280;58179;48.776;9.124;2023-03-13T09:12:20;96474.88;;;11.92;100.00
55914;BME280;58179;48.776;9.124;2023-03-13T09:14:47;96465.41;;;12.10;100.00
55914;BME280;58179;48.776;9.124;2023-03-13T09:17:13;96464.09;;;12.08;100.00
55914;BME280;58179;48.776;9.124;2023-03-13T09:19:39;96458.88;;;12.02;100.00
55914;BME280;58179;48.776;9.124;2023-03-13T09:22:05;96459.59;;;12.08;100.00
55914;BME280;58179;48.776;9.124;2023-03-13T09:24:31;96468.50;;;12.17;100.00
55914;BME280;58179;48.776;9.124;2023-03-13T09:26:57;96459.00;;;12.35;100.00
55914;BME280;58179;48.776;9.124;2023-03-13T09:29:24;96453.97;;;12.33;100.00
55914;BME280;58179;48.776;9.124;2023-03-13T09:31:50;96464.91;;;12.51;100.00
55914;BME280;58179;48.776;9.124;2023-03-13T09:34:16;96473.53;;;12.61;100.00
55914;BME280;58179;48.776;9.124;2023-03-13T09:36:41;96473.72;;;12.65;100.00
55914;BME280;58179;48.776;9.124;2023-03-13T09:39:07;96479.84;;;12.65;100.00
55914;BME280;58179;48.776;9.124;2023-03-13T09:41:38;96458.38;;;12.80;100.00
55914;BME280;58179;48.776;9.124;2023-03-13T09:44:11;96489.19;;;12.63;100.00
55914;BME280;58179;48.776;9.124;2023-03-13T09:46:47;96486.75;;;12.85;100.00
55914;BME280;58179;48.776;9.124;2023-03-13T09:49:30;96475.47;;;13.12;100.00
55914;BME280;58179;48.776;9.124;2023-03-13T09:52:09;96485.00;;;13.32;100.00
55914;BME280;58179;48.776;9.124;2023-03-13T09:54:42;96483.88;;;13.19;100.00
55914;BME280;58179;48.776;9.124;2023-03-13T09:57:18;96475.28;;;13.41;100.00
55914;BME280;58179;48.776;9.124;2023-03-13T09:59:50;96457.38;;;13.46;100.00
55914;BME280;58179;48.776;9.124;2023-03-13T10:02:28;96461.66;;;13.61;100.00
55914;BME280;58179;48.776;9.124;2023-03-13T10:05:02;96459.31;;;13.73;100.00
55914;BME280;58179;48.776;9.124;2023-03-13T10:07:29;96454.91;;;14.23;100.00
55914;BME280;58179;48.776;9.124;2023-03-13T10:09:55;96453.63;;;14.34;100.00
55914;BME280;58179;48.776;9.124;2023-03-13T10:12:26;96456.06;;;14.72;100.00
55914;BME280;58179;48.776;9.124;2023-03-13T10:15:02;96439.50;;;15.20;100.00
55914;BME280;58179;48.776;9.124;2023-03-13T10:17:36;96446.78;;;15.81;100.00
55914;BME280;58179;48.776;9.124;2023-03-13T10:20:19;96431.91;;;16.28;100.00
55914;BME280;58179;48.776;9.124;2023-03-13T10:22:50;96435.00;;;16.78;100.00
55914;BME280;58179;48.776;9.124;2023-03-13T10:25:28;96427.53;;;17.53;100.00
55914;BME280;58179;48.776;9.124;2023-03-13T10:27:55;96422.25;;;17.35;100.00
55914;BME280;58179;48.776;9.124;2023-03-13T10:30:24;96428.16;;;17.67;100.00
55914;BME280;58179;48.776;9.124;2023-03-13T10:32:57;96425.94;;;17.69;100.00
55914;BME280;58179;48.776;9.124;2023-03-13T10:35:31;96423.75;;;17.54;100.00
55914;BME280;58179;48.776;9.124;2023-03-13T10:38:07;96436.25;;;17.15;98.79
55914;BME280;58179;48.776;9.124;2023-03-13T10:40:34;96423.84;;;17.02;100.00
55914;BME280;58179;48.776;9.124;2023-03-13T10:43:03;96411.41;;;16.72;100.00
55914;BME280;58179;48.776;9.124;2023-03-13T10:45:33;96417.94;;;16.48;100.00
55914;BME280;58179;48.776;9.124;2023-03-13T10:48:12;96411.28;;;16.11;100.00
55914;BME280;58179;48.776;9.124;2023-03-13T10:50:42;96405.78;;;16.16;100.00
55914;BME280;58179;48.776;9.124;2023-03-13T10:53:23;96397.75;;;16.73;100.00
55914;BME280;58179;48.776;9.124;2023-03-13T10:55:52;96398.16;;;17.44;100.00
55914;BME280;58179;48.776;9.124;2023-03-13T10:58:23;96386.31;;;18.50;100.00
55914;BME280;58179;48.776;9.124;2023-03-13T11:00:49;96372.88;;;18.80;100.00
55914;BME280;58179;48.776;9.124;2023-03-13T11:03:22;96368.41;;;19.05;97.17
55914;BME280;58179;48.776;9.124;2023-03-13T11:05:58;96400.94;;;19.69;95.51
55914;BME280;58179;48.776;9.124;2023-03-13T11:08:32;96390.41;;;19.64;83.52
55914;BME280;58179;48.776;9.124;2023-03-13T11:11:00;96395.00;;;19.30;84.87
55914;BME280;58179;48.776;9.124;2023-03-13T11:13:35;96383.50;;;18.76;88.80
55914;BME280;58179;48.776;9.124;2023-03-13T11:16:17;96379.13;;;18.13;92.92
55914;BME280;58179;48.776;9.124;2023-03-13T11:19:21;96373.22;;;17.69;93.14
55914;BME280;58179;48.776;9.124;2023-03-13T11:22:12;96369.19;;;17.37;95.48
55914;BME280;58179;48.776;9.124;2023-03-13T11:24:48;96355.28;;;16.97;99.91
55914;BME280;58179;48.776;9.124;2023-03-13T11:27:26;96348.97;;;16.93;100.00
55914;BME280;58179;48.776;9.124;2023-03-13T11:30:15;96352.28;;;17.54;100.00
55914;BME280;58179;48.776;9.124;2023-03-13T11:32:51;96323.69;;;18.13;100.00
55914;BME280;58179;48.776;9.124;2023-03-13T11:35:36;96316.63;;;18.92;100.00
55914;BME280;58179;48.776;9.124;2023-03-13T11:38:10;96325.72;;;19.45;93.72
55914;BME280;58179;48.776;9.124;2023-03-13T11:40:43;96305.81;;;19.94;82.94
55914;BME280;58179;48.776;9.124;2023-03-13T11:43:32;96303.66;;;20.36;91.73
55914;BME280;58179;48.776;9.124;2023-03-13T11:46:17;96294.75;;;20.88;87.26
55914;BME280;58179;48.776;9.124;2023-03-13T11:52:21;96269.38;;;20.73;85.46
55914;BME280;58179;48.776;9.124;2023-03-13T11:55:11;96271.31;;;20.61;82.86
55914;BME280;58179;48.776;9.124;2023-03-13T11:57:49;96252.56;;;20.48;80.28
55914;BME280;58179;48.776;9.124;2023-03-13T12:00:28;96240.19;;;20.20;77.63
55914;BME280;58179;48.776;9.124;2023-03-13T12:02:58;96238.91;;;20.41;82.18
55914;BME280;58179;48.776;9.124;2023-03-13T12:05:38;96238.72;;;20.62;89.00
55914;BME280;58179;48.776;9.124;2023-03-13T12:08:14;96238.03;;;20.65;85.34
55914;BME280;58179;48.776;9.124;2023-03-13T12:10:45;96235.81;;;20.55;76.45
55914;BME280;58179;48.776;9.124;2023-03-13T12:13:17;96234.78;;;20.88;84.28
55914;BME280;58179;48.776;9.124;2023-03-13T12:15:48;96221.19;;;21.12;92.31
55914;BME280;58179;48.776;9.124;2023-03-13T12:18:22;96211.63;;;21.14;82.08
55914;BME280;58179;48.776;9.124;2023-03-13T12:20:57;96202.50;;;21.50;87.75
55914;BME280;58179;48.776;9.124;2023-03-13T12:23:33;96195.03;;;21.94;83.01
55914;BME280;58179;48.776;9.124;2023-03-13T12:26:07;96193.44;;;22.09;83.77
55914;BME280;58179;48.776;9.124;2023-03-13T12:28:40;96178.72;;;22.26;84.47
55914;BME280;58179;48.776;9.124;2023-03-13T12:31:18;96174.22;;;22.30;85.03
55914;BME280;58179;48.776;9.124;2023-03-13T12:33:53;96150.94;;;22.22;74.28
55914;BME280;58179;48.776;9.124;2023-03-13T12:36:27;96160.38;;;22.12;76.37
55914;BME280;58179;48.776;9.124;2023-03-13T12:39:19;96147.88;;;22.04;78.27
55914;BME280;58179;48.776;9.124;2023-03-13T12:41:51;96138.47;;;22.14;80.60
55914;BME280;58179;48.776;9.124;2023-03-13T12:44:29;96133.19;;;22.40;83.04
55914;BME280;58179;48.776;9.124;2023-03-13T12:47:06;96134.16;;;22.51;74.43
55914;BME280;58179;48.776;9.124;2023-03-13T12:50:06;96106.31;;;22.24;86.84
55914;BME280;58179;48.776;9.124;2023-03-13T12:58:24;96068.16;;;22.45;78.43
55914;BME280;58179;48.776;9.124;2023-03-13T13:00:52;96054.31;;;22.69;76.50
55914;BME280;58179;48.776;9.124;2023-03-13T13:03:28;96056.97;;;22.43;76.83
55914;BME280;58179;48.776;9.124;2023-03-13T13:06:05;96059.34;;;22.71;74.74
55914;BME280;58179;48.776;9.124;2023-03-13T13:08:39;96057.06;;;22.27;69.40
55914;BME280;58179;48.776;9.124;2023-03-13T13:11:55;96050.53;;;22.51;76.75
55914;BME280;58179;48.776;9.124;2023-03-13T13:15:01;96050.63;;;22.32;74.53
55914;BME280;58179;48.776;9.124;2023-03-13T13:17:46;96035.47;;;22.73;73.76